Time;durP1;ratioP1;P1;durP2;ratioP2;P2;SDS_P1;SDS_P2;PMS_P1;PMS_P2;Temp;Humidity;BMP_temperature;BMP_pressure;BME280_temperature;BME280_humidity;BME280_pressure;Samples;Min_cycle;Max_cycle;Signal;HPM_P1;HPM_P2
2021/08/23 00:00:17;;;;;;;3.00;2.20;;;;;;;;;;5063285;28;20120;-81
2021/08/23 00:02:44;;;;;;;3.58;2.30;;;;;;;;;;5075222;28;20021;-80
2021/08/23 00:05:12;;;;;;;2.05;1.90;;;;;;;;;;5074745;28;20052;-81
2021/08/23 00:07:38;;;;;;;2.50;1.98;;;;;;;;;;5074603;28;20028;-80
2021/08/23 00:10:04;;;;;;;4.10;2.08;;;;;;;;;;5074601;28;20050;-81
2021/08/23 00:12:31;;;;;;;3.13;2.00;;;;;;;;;;5073992;28;20048;-81
2021/08/23 00:14:57;;;;;;;2.58;2.22;;;;;;;;;;5073842;28;20040;-83
2021/08/23 00:17:23;;;;;;;2.65;2.00;;;;;;;;;;5061713;28;20021;-82
2021/08/23 00:19:49;;;;;;;5.05;2.17;;;;;;;;;;5050312;28;20033;-82
2021/08/23 00:22:36;;;;;;;3.08;2.20;;;;;;;;;;5049265;28;20037;-82
2021/08/23 00:25:03;;;;;;;2.13;1.92;;;;;;;;;;5049893;28;20550;-82
2021/08/23 00:27:30;;;;;;;3.70;2.10;;;;;;;;;;5049058;28;20156;-82
2021/08/23 00:29:56;;;;;;;2.88;1.90;;;;;;;;;;5050282;28;20029;-83
2021/08/23 00:32:23;;;;;;;2.22;1.90;;;;;;;;;;5053078;28;20060;-84
2021/08/23 00:34:49;;;;;;;4.28;2.00;;;;;;;;;;5056861;28;20048;-79
2021/08/23 00:37:15;;;;;;;2.60;2.35;;;;;;;;;;5064048;28;20044;-80
2021/08/23 00:39:42;;;;;;;5.47;2.33;;;;;;;;;;5068889;28;20067;-81
2021/08/23 00:42:08;;;;;;;2.72;1.90;;;;;;;;;;5069682;28;20028;-81
2021/08/23 00:44:40;;;;;;;2.20;1.90;;;;;;;;;;5072476;28;20028;-80
2021/08/23 00:47:07;;;;;;;2.42;2.08;;;;;;;;;;5074399;28;20009;-82
2021/08/23 00:49:33;;;;;;;4.13;2.58;;;;;;;;;;5070918;28;20063;-81
2021/08/23 00:52:00;;;;;;;2.72;2.03;;;;;;;;;;5067680;28;20041;-82
2021/08/23 00:54:26;;;;;;;2.92;1.95;;;;;;;;;;5051399;28;20036;-80
2021/08/23 00:56:52;;;;;;;2.35;2.03;;;;;;;;;;5050586;28;20029;-81
2021/08/23 00:59:19;;;;;;;1.85;1.75;;;;;;;;;;5048384;28;20037;-83
2021/08/23 01:02:00;;;;;;;2.15;1.95;;;;;;;;;;5048626;28;20117;-82
2021/08/23 01:04:40;;;;;;;2.22;2.03;;;;;;;;;;5052427;28;20045;-81
2021/08/23 01:07:09;;;;;;;1.80;1.70;;;;;;;;;;5050509;28;20040;-81
2021/08/23 01:09:36;;;;;;;2.42;2.22;;;;;;;;;;5056965;28;20029;-83
2021/08/23 01:12:04;;;;;;;2.60;2.05;;;;;;;;;;5071773;28;20056;-82
2021/08/23 01:14:32;;;;;;;4.53;2.10;;;;;;;;;;5073375;28;20059;-82
2021/08/23 01:16:58;;;;;;;4.55;2.38;;;;;;;;;;5071493;28;20020;-83
2021/08/23 01:19:24;;;;;;;3.35;2.33;;;;;;;;;;5070023;28;20033;-82
2021/08/23 01:21:53;;;;;;;3.05;2.00;;;;;;;;;;5069241;28;20028;-81
2021/08/23 01:24:19;;;;;;;4.82;2.25;;;;;;;;;;5068577;28;20016;-81
2021/08/23 01:26:48;;;;;;;1.95;1.75;;;;;;;;;;5068588;28;20100;-82
2021/08/23 01:29:20;;;;;;;1.88;1.77;;;;;;;;;;5068505;28;20182;-81
2021/08/23 01:31:55;;;;;;;4.30;2.25;;;;;;;;;;5068081;28;20032;-82
2021/08/23 01:34:22;;;;;;;3.28;2.10;;;;;;;;;;5068878;28;20029;-81
2021/08/23 01:36:48;;;;;;;3.13;1.95;;;;;;;;;;5066739;28;20043;-82
2021/08/23 01:39:15;;;;;;;2.47;2.00;;;;;;;;;;5068464;28;20029;-82
2021/08/23 01:41:41;;;;;;;3.83;1.70;;;;;;;;;;5068288;28;20036;-81
2021/08/23 01:44:08;;;;;;;3.78;1.83;;;;;;;;;;5066214;28;20051;-82
2021/08/23 01:46:34;;;;;;;2.58;1.85;;;;;;;;;;5066150;28;20021;-81
2021/08/23 01:49:01;;;;;;;2.50;2.20;;;;;;;;;;5066229;28;20037;-82
2021/08/23 01:51:27;;;;;;;2.72;1.75;;;;;;;;;;5067282;28;20029;-82
2021/08/23 01:53:53;;;;;;;3.10;1.67;;;;;;;;;;5067912;28;20100;-81
2021/08/23 01:56:20;;;;;;;3.92;2.17;;;;;;;;;;5068289;28;20082;-82
2021/08/23 01:58:46;;;;;;;2.67;2.08;;;;;;;;;;5066325;28;20029;-83
2021/08/23 02:01:12;;;;;;;1.88;1.77;;;;;;;;;;5061412;28;20051;-83
2021/08/23 02:03:38;;;;;;;2.30;2.00;;;;;;;;;;5047230;28;20313;-82
2021/08/23 02:06:04;;;;;;;3.10;1.90;;;;;;;;;;5047225;28;20049;-82
2021/08/23 02:08:30;;;;;;;1.70;1.60;;;;;;;;;;5066968;28;20039;-81
2021/08/23 02:10:56;;;;;;;3.50;2.17;;;;;;;;;;5067321;28;20029;-81
2021/08/23 02:13:22;;;;;;;4.55;2.00;;;;;;;;;;5066111;28;20036;-80
2021/08/23 02:15:48;;;;;;;3.70;1.83;;;;;;;;;;5067490;28;20056;-81
2021/08/23 02:18:14;;;;;;;2.38;1.80;;;;;;;;;;5067394;28;20025;-81
2021/08/23 02:20:40;;;;;;;3.38;2.08;;;;;;;;;;5041225;28;20053;-80
2021/08/23 02:23:07;;;;;;;1.95;1.70;;;;;;;;;;5041703;28;20092;-81
2021/08/23 02:25:33;;;;;;;4.22;2.33;;;;;;;;;;5041558;28;20018;-80
2021/08/23 02:27:59;;;;;;;3.00;1.70;;;;;;;;;;5038790;28;20096;-80
2021/08/23 02:30:25;;;;;;;2.65;1.50;;;;;;;;;;5041632;28;20026;-81
2021/08/23 02:32:52;;;;;;;1.85;1.65;;;;;;;;;;5040313;28;20025;-80
2021/08/23 02:35:18;;;;;;;2.42;1.98;;;;;;;;;;5042975;28;20084;-80
2021/08/23 02:37:44;;;;;;;4.07;2.00;;;;;;;;;;5041726;28;20036;-80
2021/08/23 02:40:11;;;;;;;3.10;1.63;;;;;;;;;;5043598;28;20030;-80
2021/08/23 02:42:37;;;;;;;1.83;1.58;;;;;;;;;;5044916;28;20051;-80
2021/08/23 02:45:04;;;;;;;3.42;1.85;;;;;;;;;;5046349;28;20100;-81
2021/08/23 02:47:30;;;;;;;2.15;1.77;;;;;;;;;;5047829;28;20109;-81
2021/08/23 02:49:58;;;;;;;1.77;1.67;;;;;;;;;;5049734;28;20085;-81
2021/08/23 02:52:24;;;;;;;1.55;1.45;;;;;;;;;;5050115;28;20040;-82
2021/08/23 02:54:50;;;;;;;1.80;1.70;;;;;;;;;;5049721;28;20025;-82
2021/08/23 02:57:16;;;;;;;3.03;1.77;;;;;;;;;;5049426;28;20081;-80
2021/08/23 02:59:42;;;;;;;3.17;2.20;;;;;;;;;;5052608;28;20009;-82
2021/08/23 03:02:08;;;;;;;3.67;2.05;;;;;;;;;;5055479;28;20040;-80
2021/08/23 03:04:34;;;;;;;2.10;1.80;;;;;;;;;;5042284;28;20085;-80
2021/08/23 03:07:00;;;;;;;2.83;2.05;;;;;;;;;;5043807;28;20037;-81
2021/08/23 03:09:26;;;;;;;2.13;1.60;;;;;;;;;;5046563;28;20045;-80
2021/08/23 03:11:52;;;;;;;2.63;2.20;;;;;;;;;;5046043;28;20037;-83
2021/08/23 03:14:18;;;;;;;1.92;1.73;;;;;;;;;;5049083;28;20050;-81
2021/08/23 03:16:44;;;;;;;2.60;1.60;;;;;;;;;;5051946;28;20021;-82
2021/08/23 03:19:11;;;;;;;3.38;1.85;;;;;;;;;;5054848;28;20030;-80
2021/08/23 03:21:37;;;;;;;2.35;1.85;;;;;;;;;;5055404;28;20065;-80
2021/08/23 03:24:03;;;;;;;2.88;1.80;;;;;;;;;;5055391;28;20043;-81
2021/08/23 03:26:29;;;;;;;2.97;2.03;;;;;;;;;;5054252;28;20014;-81
2021/08/23 03:28:55;;;;;;;2.85;2.00;;;;;;;;;;5053896;28;20049;-81
2021/08/23 03:31:21;;;;;;;1.83;1.70;;;;;;;;;;5052824;28;20051;-82
2021/08/23 03:33:47;;;;;;;1.95;1.80;;;;;;;;;;5050749;28;20034;-82
2021/08/23 03:36:13;;;;;;;2.80;1.90;;;;;;;;;;5051781;28;20040;-82
2021/08/23 03:38:41;;;;;;;2.85;1.90;;;;;;;;;;5049363;28;20467;-83
2021/08/23 03:41:08;;;;;;;3.47;1.80;;;;;;;;;;5049715;28;20029;-82
2021/08/23 03:43:34;;;;;;;2.58;1.92;;;;;;;;;;5050078;28;20052;-82
2021/08/23 03:46:00;;;;;;;1.40;1.30;;;;;;;;;;5051739;28;20075;-80
2021/08/23 03:48:26;;;;;;;2.65;1.90;;;;;;;;;;5069751;28;20025;-82
2021/08/23 03:50:52;;;;;;;2.50;1.80;;;;;;;;;;5070737;28;20032;-81
2021/08/23 03:53:21;;;;;;;4.60;2.00;;;;;;;;;;5070785;28;20079;-82
2021/08/23 03:55:47;;;;;;;3.40;1.45;;;;;;;;;;5070858;28;20127;-81
2021/08/23 03:58:13;;;;;;;3.50;1.90;;;;;;;;;;5068616;28;20092;-82
2021/08/23 04:00:39;;;;;;;4.80;1.88;;;;;;;;;;5067786;28;20033;-80
2021/08/23 04:03:05;;;;;;;2.53;2.00;;;;;;;;;;5067951;28;20021;-82
2021/08/23 04:05:31;;;;;;;2.08;1.92;;;;;;;;;;5067617;28;20025;-81
2021/08/23 04:07:57;;;;;;;3.58;1.90;;;;;;;;;;5069081;28;20021;-82
2021/08/23 04:10:23;;;;;;;1.95;1.73;;;;;;;;;;5069562;28;20036;-81
2021/08/23 04:12:49;;;;;;;2.17;1.50;;;;;;;;;;5069084;28;20043;-81
2021/08/23 04:15:15;;;;;;;2.47;1.65;;;;;;;;;;5070418;28;20025;-82
2021/08/23 04:17:41;;;;;;;3.25;1.75;;;;;;;;;;5069204;28;20029;-82
2021/08/23 04:20:07;;;;;;;5.97;2.17;;;;;;;;;;5050663;28;20032;-82
2021/08/23 04:22:33;;;;;;;3.05;1.83;;;;;;;;;;5049290;28;20029;-81
2021/08/23 04:24:59;;;;;;;3.55;1.80;;;;;;;;;;5049697;28;20033;-82
2021/08/23 04:27:26;;;;;;;2.25;1.40;;;;;;;;;;5048864;28;20028;-81
2021/08/23 04:29:52;;;;;;;1.75;1.65;;;;;;;;;;5047918;28;20021;-81
2021/08/23 04:32:18;;;;;;;3.22;1.60;;;;;;;;;;5047599;28;20025;-81
2021/08/23 04:34:44;;;;;;;2.20;1.95;;;;;;;;;;5062694;28;20045;-82
2021/08/23 04:37:10;;;;;;;2.17;1.77;;;;;;;;;;5069395;28;20025;-82
2021/08/23 04:39:36;;;;;;;3.50;1.60;;;;;;;;;;5069668;28;20127;-81
2021/08/23 04:42:02;;;;;;;1.67;1.58;;;;;;;;;;5068072;28;20505;-81
2021/08/23 04:44:28;;;;;;;2.22;1.52;;;;;;;;;;5074643;28;20073;-81
2021/08/23 04:46:54;;;;;;;3.08;1.63;;;;;;;;;;5075188;28;20021;-81
2021/08/23 04:49:20;;;;;;;1.45;1.35;;;;;;;;;;5065504;28;20021;-82
2021/08/23 04:51:47;;;;;;;2.90;1.63;;;;;;;;;;5048517;28;20070;-82
2021/08/23 04:54:13;;;;;;;1.90;1.65;;;;;;;;;;5071857;23;20100;-81
2021/08/23 04:56:39;;;;;;;2.17;1.67;;;;;;;;;;5047277;28;20397;-82
2021/08/23 04:59:05;;;;;;;1.48;1.38;;;;;;;;;;5038938;28;20105;-81
2021/08/23 05:01:31;;;;;;;1.52;1.42;;;;;;;;;;5038758;28;20029;-81
2021/08/23 05:03:57;;;;;;;2.22;1.67;;;;;;;;;;5038978;28;20032;-81
2021/08/23 05:06:23;;;;;;;4.25;1.85;;;;;;;;;;5057539;28;20039;-81
2021/08/23 05:08:49;;;;;;;1.75;1.60;;;;;;;;;;5059425;28;20029;-82
2021/08/23 05:11:15;;;;;;;2.53;1.50;;;;;;;;;;5060368;28;20025;-80
2021/08/23 05:13:41;;;;;;;2.28;1.95;;;;;;;;;;5059240;28;20504;-82
2021/08/23 05:16:07;;;;;;;2.60;2.22;;;;;;;;;;5059437;28;20041;-83
2021/08/23 05:18:33;;;;;;;2.63;1.88;;;;;;;;;;5059850;28;20049;-86
2021/08/23 05:21:03;;;;;;;4.57;1.75;;;;;;;;;;5059406;28;20020;-83
2021/08/23 05:23:29;;;;;;;3.35;1.70;;;;;;;;;;5059887;28;20021;-82
2021/08/23 05:25:55;;;;;;;2.40;1.77;;;;;;;;;;5060338;28;20016;-82
2021/08/23 05:28:21;;;;;;;7.97;2.08;;;;;;;;;;5060904;28;20307;-82
2021/08/23 05:30:47;;;;;;;2.03;1.77;;;;;;;;;;5058404;28;20068;-82
2021/08/23 05:33:13;;;;;;;4.07;1.77;;;;;;;;;;5059753;28;20024;-81
2021/08/23 05:35:39;;;;;;;2.38;1.80;;;;;;;;;;5058524;28;20020;-82
2021/08/23 05:38:05;;;;;;;3.38;2.10;;;;;;;;;;5060786;28;20029;-82
2021/08/23 05:40:32;;;;;;;5.22;2.03;;;;;;;;;;5059949;28;20029;-82
2021/08/23 05:42:58;;;;;;;1.70;1.52;;;;;;;;;;5058819;28;20389;-82
2021/08/23 05:45:24;;;;;;;2.17;1.80;;;;;;;;;;5060424;28;20644;-82
2021/08/23 05:47:50;;;;;;;1.77;1.40;;;;;;;;;;5060631;28;20024;-81
2021/08/23 05:50:16;;;;;;;3.13;1.80;;;;;;;;;;5059872;28;20108;-82
2021/08/23 05:52:42;;;;;;;1.95;1.75;;;;;;;;;;5058743;28;20079;-82
2021/08/23 05:55:09;;;;;;;1.73;1.63;;;;;;;;;;5058404;28;20060;-81
2021/08/23 05:57:35;;;;;;;3.17;1.50;;;;;;;;;;5060555;28;20029;-82
2021/08/23 06:00:01;;;;;;;2.22;1.73;;;;;;;;;;5058254;28;20024;-82
2021/08/23 06:02:27;;;;;;;2.72;2.05;;;;;;;;;;5059989;28;20082;-82
2021/08/23 06:04:53;;;;;;;5.00;1.67;;;;;;;;;;5059302;28;20461;-83
2021/08/23 06:07:19;;;;;;;3.00;1.73;;;;;;;;;;5059555;28;20103;-82
2021/08/23 06:09:45;;;;;;;5.13;2.00;;;;;;;;;;5061521;28;20025;-82
2021/08/23 06:12:11;;;;;;;1.75;1.65;;;;;;;;;;5060021;28;20044;-83
2021/08/23 06:14:40;;;;;;;2.83;2.05;;;;;;;;;;5060458;28;20040;-83
2021/08/23 06:17:06;;;;;;;2.78;1.58;;;;;;;;;;5060731;28;20482;-83
2021/08/23 06:19:32;;;;;;;2.33;1.75;;;;;;;;;;5059689;28;20025;-83
2021/08/23 06:21:58;;;;;;;2.47;1.70;;;;;;;;;;5060587;28;20124;-83
2021/08/23 06:24:24;;;;;;;1.83;1.42;;;;;;;;;;5063314;28;20528;-82
2021/08/23 06:26:50;;;;;;;2.22;1.77;;;;;;;;;;5062606;28;20390;-82
2021/08/23 06:29:17;;;;;;;1.73;1.60;;;;;;;;;;5061781;28;20021;-82
2021/08/23 06:31:43;;;;;;;3.72;1.80;;;;;;;;;;5062821;28;20485;-82
2021/08/23 06:34:09;;;;;;;2.92;1.63;;;;;;;;;;5062432;28;20420;-82
2021/08/23 06:36:41;;;;;;;1.92;1.52;;;;;;;;;;5062963;28;20084;-82
2021/08/23 06:39:07;;;;;;;1.92;1.65;;;;;;;;;;5062214;28;20025;-82
2021/08/23 06:41:33;;;;;;;4.45;1.83;;;;;;;;;;5062054;28;20115;-82
2021/08/23 06:43:59;;;;;;;3.15;1.55;;;;;;;;;;5067445;28;20033;-81
2021/08/23 06:46:25;;;;;;;3.53;1.52;;;;;;;;;;5068922;28;20025;-81
2021/08/23 06:48:51;;;;;;;3.65;1.73;;;;;;;;;;5063787;28;20060;-81
2021/08/23 06:51:20;;;;;;;3.13;1.70;;;;;;;;;;5062610;28;20017;-82
2021/08/23 06:53:47;;;;;;;1.70;1.60;;;;;;;;;;5061912;28;20017;-82
2021/08/23 06:56:13;;;;;;;2.05;1.83;;;;;;;;;;5062216;28;20028;-82
2021/08/23 06:58:39;;;;;;;4.78;1.98;;;;;;;;;;5062024;28;20033;-82
2021/08/23 07:01:05;;;;;;;2.67;1.98;;;;;;;;;;5061633;28;20029;-82
2021/08/23 07:03:31;;;;;;;1.90;1.80;;;;;;;;;;5061099;28;20366;-83
2021/08/23 07:05:59;;;;;;;2.97;2.10;;;;;;;;;;5061889;28;20108;-82
2021/08/23 07:08:25;;;;;;;2.28;1.60;;;;;;;;;;5060101;28;20047;-83
2021/08/23 07:10:51;;;;;;;2.92;2.30;;;;;;;;;;5062459;28;20477;-83
2021/08/23 07:13:17;;;;;;;2.13;1.92;;;;;;;;;;5061296;28;20036;-83
2021/08/23 07:15:44;;;;;;;2.92;1.40;;;;;;;;;;5061032;28;20025;-83
2021/08/23 07:18:10;;;;;;;2.17;1.40;;;;;;;;;;5061676;28;20028;-82
2021/08/23 07:20:36;;;;;;;3.05;2.05;;;;;;;;;;5061259;28;20140;-82
2021/08/23 07:23:02;;;;;;;1.40;1.30;;;;;;;;;;5061978;28;20052;-82
2021/08/23 07:25:28;;;;;;;3.58;1.60;;;;;;;;;;5061039;28;20446;-81
2021/08/23 07:27:54;;;;;;;2.58;1.50;;;;;;;;;;5060816;28;20100;-80
2021/08/23 07:30:21;;;;;;;3.15;2.00;;;;;;;;;;5061321;28;20143;-82
2021/08/23 07:32:47;;;;;;;3.25;1.90;;;;;;;;;;5060578;28;20029;-81
2021/08/23 07:35:13;;;;;;;1.58;1.42;;;;;;;;;;5060012;28;20051;-81
2021/08/23 07:37:46;;;;;;;6.15;1.63;;;;;;;;;;5060890;28;20035;-82
2021/08/23 07:40:13;;;;;;;1.90;1.45;;;;;;;;;;5060260;28;20029;-82
2021/08/23 07:42:39;;;;;;;1.77;1.48;;;;;;;;;;5060701;28;20029;-80
2021/08/23 07:45:05;;;;;;;1.30;1.20;;;;;;;;;;5061289;28;20090;-81
2021/08/23 07:47:31;;;;;;;2.13;1.52;;;;;;;;;;5061873;28;20025;-82
2021/08/23 07:49:57;;;;;;;5.40;2.33;;;;;;;;;;5062079;28;20021;-81
2021/08/23 07:52:24;;;;;;;3.20;1.70;;;;;;;;;;5064132;28;20152;-81
2021/08/23 07:54:50;;;;;;;2.28;1.98;;;;;;;;;;5070217;28;20043;-81
2021/08/23 07:57:16;;;;;;;2.55;1.92;;;;;;;;;;5065146;28;20080;-82
2021/08/23 07:59:42;;;;;;;5.65;2.03;;;;;;;;;;5061686;28;20029;-82
2021/08/23 08:02:08;;;;;;;3.95;1.80;;;;;;;;;;5060349;28;20079;-83
2021/08/23 08:04:34;;;;;;;2.70;1.45;;;;;;;;;;5061682;28;20025;-82
2021/08/23 08:07:00;;;;;;;4.43;1.70;;;;;;;;;;5061214;28;20147;-82
2021/08/23 08:09:26;;;;;;;2.65;1.77;;;;;;;;;;5062549;28;20032;-83
2021/08/23 08:11:52;;;;;;;3.72;2.22;;;;;;;;;;5062444;28;20533;-82
2021/08/23 08:14:18;;;;;;;3.00;1.63;;;;;;;;;;5060865;28;20028;-82
2021/08/23 08:16:44;;;;;;;2.20;1.58;;;;;;;;;;5059937;28;20028;-83
2021/08/23 08:19:10;;;;;;;2.22;1.50;;;;;;;;;;5064517;28;20043;-83
2021/08/23 08:21:36;;;;;;;2.03;1.63;;;;;;;;;;5066476;28;20021;-82
2021/08/23 08:24:02;;;;;;;2.05;1.65;;;;;;;;;;5061367;28;20040;-82
2021/08/23 08:26:28;;;;;;;1.73;1.63;;;;;;;;;;5060702;28;20024;-81
2021/08/23 08:28:54;;;;;;;3.28;2.08;;;;;;;;;;5062955;28;20374;-80
2021/08/23 08:31:20;;;;;;;3.88;2.20;;;;;;;;;;5063631;28;20033;-81
2021/08/23 08:33:47;;;;;;;2.70;1.65;;;;;;;;;;5059240;28;20534;-82
2021/08/23 08:36:14;;;;;;;2.72;1.85;;;;;;;;;;5057931;28;20058;-81
2021/08/23 08:38:41;;;;;;;2.72;2.00;;;;;;;;;;5056969;28;20048;-80
2021/08/23 08:41:07;;;;;;;3.13;1.70;;;;;;;;;;5058399;28;20024;-81
2021/08/23 08:43:33;;;;;;;2.33;1.70;;;;;;;;;;5060769;28;20139;-81
2021/08/23 08:45:59;;;;;;;1.73;1.40;;;;;;;;;;5064592;28;20066;-81
2021/08/23 08:48:26;;;;;;;6.00;1.65;;;;;;;;;;5058480;28;20021;-81
2021/08/23 08:50:52;;;;;;;2.60;1.63;;;;;;;;;;5057302;28;20036;-80
2021/08/23 08:53:19;;;;;;;4.00;1.92;;;;;;;;;;5063203;28;20032;-82
2021/08/23 08:55:45;;;;;;;2.38;2.00;;;;;;;;;;5065389;28;20135;-80
2021/08/23 08:58:11;;;;;;;2.28;1.77;;;;;;;;;;5058056;28;20037;-81
2021/08/23 09:00:38;;;;;;;5.22;2.08;;;;;;;;;;5061584;28;20047;-81
2021/08/23 09:03:05;;;;;;;4.20;2.08;;;;;;;;;;5057981;28;20044;-82
2021/08/23 09:05:51;;;;;;;4.55;2.13;;;;;;;;;;5056775;28;20083;-82
2021/08/23 09:08:27;;;;;;;2.55;1.77;;;;;;;;;;5057724;28;20017;-82
2021/08/23 09:10:53;;;;;;;2.25;1.88;;;;;;;;;;5042436;28;20017;-81
2021/08/23 09:13:19;;;;;;;4.13;1.77;;;;;;;;;;5058807;28;20082;-80
2021/08/23 09:15:55;;;;;;;2.03;1.60;;;;;;;;;;5059608;28;20087;-80
2021/08/23 09:18:27;;;;;;;2.75;1.90;;;;;;;;;;5060648;28;20055;-79
2021/08/23 09:20:53;;;;;;;;;;;;;;;;;;5059942;28;20075;-82
2021/08/23 09:23:19;;;;;;;2.60;1.40;;;;;;;;;;5059623;28;19908;-81
2021/08/23 09:25:45;;;;;;;3.10;2.03;;;;;;;;;;5061942;28;20051;-80
2021/08/23 09:28:12;;;;;;;3.03;1.63;;;;;;;;;;5057707;28;20036;-81
2021/08/23 09:30:39;;;;;;;2.95;1.90;;;;;;;;;;5057825;28;20485;-81
2021/08/23 09:33:06;;;;;;;3.38;1.77;;;;;;;;;;5059151;28;20040;-80
2021/08/23 09:35:35;;;;;;;6.45;1.42;;;;;;;;;;5058138;28;20108;-81
2021/08/23 09:38:01;;;;;;;4.53;2.17;;;;;;;;;;5058079;28;20051;-81
2021/08/23 09:40:30;;;;;;;2.15;1.73;;;;;;;;;;5057324;28;20040;-81
2021/08/23 09:43:13;;;;;;;2.58;1.65;;;;;;;;;;5059426;28;20013;-80
2021/08/23 09:46:00;;;;;;;4.20;1.63;;;;;;;;;;5058318;28;20028;-81
2021/08/23 09:48:26;;;;;;;2.30;1.70;;;;;;;;;;5058125;28;20017;-82
2021/08/23 09:50:52;;;;;;;2.05;1.40;;;;;;;;;;5058363;28;20047;-81
2021/08/23 09:53:23;;;;;;;2.83;1.80;;;;;;;;;;5061827;28;20104;-81
2021/08/23 09:55:51;;;;;;;1.70;1.23;;;;;;;;;;5069554;28;20043;-81
2021/08/23 09:58:17;;;;;;;2.20;1.63;;;;;;;;;;5064938;28;20052;-82
2021/08/23 10:00:44;;;;;;;3.83;2.25;;;;;;;;;;5064689;28;20025;-82
2021/08/23 10:03:14;;;;;;;1.98;1.63;;;;;;;;;;5063687;28;20524;-79
2021/08/23 10:05:50;;;;;;;4.25;1.55;;;;;;;;;;5062573;28;20032;-82
2021/08/23 10:08:17;;;;;;;2.00;1.30;;;;;;;;;;5067991;28;20072;-82
2021/08/23 10:10:44;;;;;;;1.35;1.02;;;;;;;;;;5062134;28;20021;-80
2021/08/23 10:13:10;;;;;;;1.38;1.17;;;;;;;;;;5061682;28;20039;-81
2021/08/23 10:15:38;;;;;;;2.42;1.10;;;;;;;;;;5061611;28;20059;-80
2021/08/23 10:18:05;;;;;;;1.25;1.15;;;;;;;;;;5059936;28;20130;-81
2021/08/23 10:20:32;;;;;;;1.58;1.48;;;;;;;;;;5060182;28;20024;-82
2021/08/23 10:22:59;;;;;;;1.98;1.25;;;;;;;;;;5061896;28;20021;-81
2021/08/23 10:25:26;;;;;;;1.17;1.08;;;;;;;;;;5061237;28;20021;-82
2021/08/23 10:27:52;;;;;;;3.83;1.23;;;;;;;;;;5061178;28;20561;-81
2021/08/23 10:30:25;;;;;;;3.92;1.15;;;;;;;;;;5063158;28;20056;-81
2021/08/23 10:32:52;;;;;;;3.03;1.17;;;;;;;;;;5059677;28;20029;-82
2021/08/23 10:35:18;;;;;;;3.70;1.30;;;;;;;;;;5060011;28;20021;-82
2021/08/23 10:37:45;;;;;;;1.77;0.90;;;;;;;;;;5061923;28;20021;-81
2021/08/23 10:40:11;;;;;;;1.98;1.55;;;;;;;;;;5062259;28;20029;-82
2021/08/23 10:42:38;;;;;;;1.80;1.25;;;;;;;;;;5063105;28;20021;-81
2021/08/23 10:45:08;;;;;;;3.10;1.10;;;;;;;;;;5064812;28;20028;-81
2021/08/23 10:47:35;;;;;;;2.40;1.40;;;;;;;;;;5062071;28;20075;-82
2021/08/23 10:50:01;;;;;;;3.35;1.73;;;;;;;;;;5060028;28;20512;-82
2021/08/23 10:52:30;;;;;;;1.90;1.45;;;;;;;;;;5061209;28;20369;-81
2021/08/23 10:54:56;;;;;;;3.08;1.30;;;;;;;;;;5089383;22;20067;-82
2021/08/23 10:57:23;;;;;;;5.97;1.58;;;;;;;;;;5063113;28;20071;-81
2021/08/23 10:59:53;;;;;;;2.08;1.27;;;;;;;;;;5065497;28;20017;-82
2021/08/23 11:02:36;;;;;;;2.83;1.50;;;;;;;;;;5067148;28;20021;-83
2021/08/23 11:05:03;;;;;;;1.92;1.58;;;;;;;;;;5064331;28;20021;-81
2021/08/23 11:07:30;;;;;;;5.45;2.03;;;;;;;;;;5065289;28;20215;-82
2021/08/23 11:10:13;;;;;;;3.28;1.80;;;;;;;;;;5064777;28;20427;-81
2021/08/23 11:12:41;;;;;;;2.60;1.67;;;;;;;;;;5050743;28;20450;-83
2021/08/23 11:15:20;;;;;;;2.65;1.80;;;;;;;;;;5051004;28;20045;-81
2021/08/23 11:17:49;;;;;;;2.83;1.33;;;;;;;;;;5050584;28;20017;-82
2021/08/23 11:20:35;;;;;;;2.38;1.48;;;;;;;;;;5050518;28;20029;-83
2021/08/23 11:23:02;;;;;;;2.15;1.73;;;;;;;;;;5050613;28;20055;-82
2021/08/23 11:25:35;;;;;;;3.30;1.80;;;;;;;;;;5050116;28;20067;-81
2021/08/23 11:28:04;;;;;;;2.28;1.85;;;;;;;;;;5051181;28;20034;-80
2021/08/23 11:30:33;;;;;;;3.75;1.70;;;;;;;;;;5050261;28;20029;-81
2021/08/23 11:33:00;;;;;;;3.47;1.35;;;;;;;;;;5050959;28;20025;-81
2021/08/23 11:35:26;;;;;;;2.03;1.55;;;;;;;;;;5048625;28;20026;-81
2021/08/23 11:38:00;;;;;;;1.83;1.35;;;;;;;;;;5049463;28;20017;-81
2021/08/23 11:40:27;;;;;;;2.58;1.70;;;;;;;;;;5050648;28;20029;-82
2021/08/23 11:42:54;;;;;;;3.08;1.77;;;;;;;;;;5049320;28;20033;-82
2021/08/23 11:45:21;;;;;;;2.72;1.80;;;;;;;;;;5057539;28;20084;-82
2021/08/23 11:47:49;;;;;;;2.95;1.80;;;;;;;;;;5070184;28;20161;-82
2021/08/23 11:50:15;;;;;;;3.38;1.88;;;;;;;;;;5070593;28;20017;-83
2021/08/23 11:52:41;;;;;;;4.63;1.98;;;;;;;;;;5069934;28;20024;-83
2021/08/23 11:55:07;;;;;;;4.45;1.63;;;;;;;;;;5069111;28;20044;-82
2021/08/23 11:57:35;;;;;;;2.15;1.50;;;;;;;;;;5070215;28;20029;-82
2021/08/23 12:00:03;;;;;;;2.30;1.58;;;;;;;;;;5070456;28;20067;-82
2021/08/23 12:02:36;;;;;;;3.00;1.80;;;;;;;;;;5069311;28;20043;-83
2021/08/23 12:05:20;;;;;;;4.70;2.30;;;;;;;;;;5069726;28;20547;-82
2021/08/23 12:07:50;;;;;;;3.53;1.70;;;;;;;;;;5069277;28;20175;-81
2021/08/23 12:10:45;;;;;;;2.97;1.65;;;;;;;;;;5068866;28;20032;-82
2021/08/23 12:13:13;;;;;;;2.47;1.67;;;;;;;;;;5056578;28;20044;-82
2021/08/23 12:15:50;;;;;;;3.22;1.50;;;;;;;;;;5070785;28;20035;-82
2021/08/23 12:18:16;;;;;;;4.63;2.30;;;;;;;;;;5071260;28;20362;-83
2021/08/23 12:20:42;;;;;;;4.05;1.35;;;;;;;;;;5069908;28;20047;-84
2021/08/23 12:23:08;;;;;;;3.17;1.63;;;;;;;;;;5069915;28;20036;-83
2021/08/23 12:25:34;;;;;;;3.05;1.60;;;;;;;;;;5071416;28;20077;-82
2021/08/23 12:28:01;;;;;;;3.38;2.08;;;;;;;;;;5070795;28;20021;-82
2021/08/23 12:30:34;;;;;;;1.55;1.42;;;;;;;;;;5069669;28;20029;-83
2021/08/23 12:33:00;;;;;;;3.20;1.80;;;;;;;;;;5070212;28;20021;-83
2021/08/23 12:35:27;;;;;;;2.92;1.70;;;;;;;;;;5072031;28;20025;-83
2021/08/23 12:37:53;;;;;;;5.78;1.70;;;;;;;;;;5073031;28;20029;-81
2021/08/23 12:40:19;;;;;;;2.38;1.75;;;;;;;;;;5070983;28;20051;-83
2021/08/23 12:42:45;;;;;;;4.85;1.35;;;;;;;;;;5069335;28;20099;-81
2021/08/23 12:45:11;;;;;;;4.05;2.38;;;;;;;;;;5061488;28;20024;-82
2021/08/23 12:47:38;;;;;;;2.92;1.70;;;;;;;;;;5060793;28;20113;-80
2021/08/23 12:50:04;;;;;;;4.10;1.48;;;;;;;;;;5059237;28;20021;-81
2021/08/23 12:52:31;;;;;;;1.85;1.55;;;;;;;;;;5062010;28;20025;-82
2021/08/23 12:54:57;;;;;;;2.33;1.70;;;;;;;;;;5060247;28;20029;-82
2021/08/23 12:57:24;;;;;;;2.85;1.60;;;;;;;;;;5061572;28;20029;-80
2021/08/23 12:59:50;;;;;;;3.55;1.60;;;;;;;;;;5059482;28;20104;-81
2021/08/23 13:02:16;;;;;;;3.92;1.90;;;;;;;;;;5059282;28;20064;-80
2021/08/23 13:04:42;;;;;;;3.83;2.05;;;;;;;;;;5059226;28;20067;-82
2021/08/23 13:07:09;;;;;;;2.78;1.95;;;;;;;;;;5059447;28;20049;-81
2021/08/23 13:09:35;;;;;;;4.15;1.92;;;;;;;;;;5059880;28;20462;-81
2021/08/23 13:12:01;;;;;;;2.58;1.70;;;;;;;;;;5060806;28;20025;-83
2021/08/23 13:14:27;;;;;;;2.95;2.00;;;;;;;;;;5062498;28;20036;-82
2021/08/23 13:16:53;;;;;;;3.10;1.40;;;;;;;;;;5059088;28;20089;-83
2021/08/23 13:19:19;;;;;;;1.95;1.40;;;;;;;;;;5071540;28;20109;-82
2021/08/23 13:21:45;;;;;;;2.50;1.70;;;;;;;;;;5059292;28;20065;-81
2021/08/23 13:24:11;;;;;;;1.40;1.30;;;;;;;;;;5059337;28;20484;-82
2021/08/23 13:26:38;;;;;;;3.38;1.20;;;;;;;;;;5059850;28;20021;-81
2021/08/23 13:29:04;;;;;;;1.77;1.10;;;;;;;;;;5056018;28;20031;-81
2021/08/23 13:31:30;;;;;;;3.53;1.60;;;;;;;;;;5064923;28;20053;-83
2021/08/23 13:33:56;;;;;;;3.53;1.58;;;;;;;;;;5074620;28;20044;-81
2021/08/23 13:36:22;;;;;;;2.17;1.55;;;;;;;;;;5068780;28;20028;-81
2021/08/23 13:38:48;;;;;;;1.30;1.20;;;;;;;;;;5064069;28;20457;-83
2021/08/23 13:41:16;;;;;;;3.42;1.50;;;;;;;;;;5072426;28;20076;-80
2021/08/23 13:43:46;;;;;;;2.97;1.70;;;;;;;;;;5058025;28;20071;-83
2021/08/23 13:46:12;;;;;;;6.38;2.10;;;;;;;;;;5060644;28;20438;-82
2021/08/23 13:48:38;;;;;;;1.73;1.40;;;;;;;;;;5059724;28;20029;-80
2021/08/23 13:51:04;;;;;;;4.85;1.90;;;;;;;;;;5061531;28;20108;-82
2021/08/23 13:53:30;;;;;;;2.47;1.42;;;;;;;;;;5065576;28;20478;-83
2021/08/23 13:55:56;;;;;;;2.65;1.80;;;;;;;;;;5066353;28;20041;-83
2021/08/23 13:58:22;;;;;;;2.58;1.52;;;;;;;;;;5068415;28;20028;-82
2021/08/23 14:00:48;;;;;;;1.80;1.40;;;;;;;;;;5065384;28;20036;-83
2021/08/23 14:03:14;;;;;;;3.35;1.60;;;;;;;;;;5060840;28;20038;-82
2021/08/23 14:05:40;;;;;;;1.98;1.35;;;;;;;;;;5060228;28;20369;-82
2021/08/23 14:08:06;;;;;;;1.55;1.20;;;;;;;;;;5057418;28;20025;-80
2021/08/23 14:10:33;;;;;;;3.08;1.80;;;;;;;;;;5058356;28;20035;-82
2021/08/23 14:13:00;;;;;;;3.85;1.58;;;;;;;;;;5057495;28;20021;-83
2021/08/23 14:15:26;;;;;;;3.50;1.70;;;;;;;;;;5059914;28;20101;-83
2021/08/23 14:17:52;;;;;;;1.80;1.50;;;;;;;;;;5058222;28;20049;-81
2021/08/23 14:20:18;;;;;;;2.08;1.85;;;;;;;;;;5057900;28;20029;-81
2021/08/23 14:22:45;;;;;;;3.38;1.77;;;;;;;;;;5057994;28;20055;-82
2021/08/23 14:25:12;;;;;;;2.25;1.50;;;;;;;;;;5057161;28;20338;-82
2021/08/23 14:27:39;;;;;;;2.90;1.33;;;;;;;;;;5057070;28;20051;-81
2021/08/23 14:30:05;;;;;;;3.33;1.65;;;;;;;;;;5057958;28;20458;-81
2021/08/23 14:32:31;;;;;;;2.20;1.67;;;;;;;;;;5057211;28;20528;-80
2021/08/23 14:34:57;;;;;;;3.30;1.65;;;;;;;;;;5057959;28;20029;-83
2021/08/23 14:37:23;;;;;;;4.82;1.90;;;;;;;;;;5055912;28;20500;-81
2021/08/23 14:39:49;;;;;;;3.33;1.88;;;;;;;;;;5056321;28;20021;-82
2021/08/23 14:42:15;;;;;;;2.45;1.67;;;;;;;;;;5056104;28;20032;-81